Time;durP1;ratioP1;P1;durP2;ratioP2;P2;SDS_P1;SDS_P2;PMS_P1;PMS_P2;Temp;Humidity;BMP_temperature;BMP_pressure;BME280_temperature;BME280_humidity;BME280_pressure;Samples;Min_cycle;Max_cycle;Signal;HPM_P1;HPM_P2
2022/06/27 00:00:08;;;;;;;530.83;502.17;;;;;;;28.99;41.89;100845.91;693978;28;23467;-67
2022/06/27 00:00:35;;;;;;;197.45;188.10;;;;;;;28.98;42.24;100846.19;689443;28;137709;-66
2022/06/27 00:00:57;;;;;;;437.95;415.58;;;;;;;28.97;42.03;100845.38;694253;28;22419;-67
2022/06/27 00:01:18;;;;;;;302.60;287.95;;;;;;;28.97;42.25;100848.16;690774;28;21492;-66
2022/06/27 00:01:40;;;;;;;160.80;153.23;;;;;;;28.97;42.25;100844.56;690773;28;45210;-66
2022/06/27 00:02:01;;;;;;;103.32;98.53;;;;;;;28.91;42.06;100832.66;691130;28;43424;-66
2022/06/27 00:02:23;;;;;;;85.90;81.90;;;;;;;28.96;41.83;100852.06;692541;28;10055;-66
2022/06/27 00:02:44;;;;;;;109.00;103.88;;;;;;;28.96;42.30;100846.50;690754;28;45318;-65
2022/06/27 00:03:08;;;;;;;154.52;147.07;;;;;;;28.94;41.75;100844.00;692779;28;1804;-65
2022/06/27 00:03:30;;;;;;;94.38;89.88;;;;;;;28.92;41.92;100840.72;693146;28;45231;-65
2022/06/27 00:03:51;;;;;;;36.70;35.03;;;;;;;28.89;42.36;100844.09;693965;28;22495;-65
2022/06/27 00:04:12;;;;;;;30.80;29.50;;;;;;;28.92;42.22;100840.72;694055;28;21527;-65
2022/06/27 00:04:34;;;;;;;20.65;19.85;;;;;;;28.91;42.15;100846.56;693566;28;44323;-65
2022/06/27 00:04:56;;;;;;;23.95;23.02;;;;;;;28.91;41.95;100841.00;692625;28;44169;-65
2022/06/27 00:05:17;;;;;;;25.88;24.88;;;;;;;28.88;42.40;100836.88;693997;28;23507;-65
2022/06/27 00:05:38;;;;;;;63.78;60.80;;;;;;;28.91;42.27;100841.00;693880;28;22405;-65
2022/06/27 00:05:59;;;;;;;148.20;141.20;;;;;;;28.92;42.05;100845.44;693815;28;23376;-66
2022/06/27 00:06:21;;;;;;;207.88;198.13;;;;;;;28.92;42.06;100842.66;694304;28;22411;-65
2022/06/27 00:06:42;;;;;;;163.25;155.52;;;;;;;28.89;41.85;100841.31;693685;28;46379;-65
2022/06/27 00:07:04;;;;;;;137.57;131.02;;;;;;;28.92;41.99;100839.91;693548;28;21360;-65
2022/06/27 00:07:25;;;;;;;78.25;74.50;;;;;;;28.87;41.71;100832.44;693219;28;46315;-65
2022/06/27 00:07:47;;;;;;;0.80;0.80;;;;;;;28.91;42.00;100838.22;694116;28;23502;-65
2022/06/27 00:08:08;;;;;;;1.08;1.08;;;;;;;28.91;42.24;100839.03;693195;28;46132;-65
2022/06/27 00:08:30;;;;;;;1.20;1.20;;;;;;;28.92;42.13;100839.91;694232;28;22412;-65
2022/06/27 00:08:52;;;;;;;1.20;1.20;;;;;;;28.92;42.36;100837.94;694584;28;1735;-65
2022/06/27 00:09:16;;;;;;;1.58;1.58;;;;;;;28.88;42.15;100838.81;693960;28;23441;-65
2022/06/27 00:09:37;;;;;;;1.95;1.95;;;;;;;28.87;42.67;100843.56;692423;28;69425;-65
2022/06/27 00:09:58;;;;;;;14.75;14.10;;;;;;;28.88;42.45;100842.41;692303;28;44227;-65
2022/06/27 00:10:19;;;;;;;90.45;86.30;;;;;;;28.88;42.42;100839.63;693566;28;22473;-65
2022/06/27 00:10:41;;;;;;;172.93;164.80;;;;;;;28.87;42.68;100839.94;694710;28;1735;-65
2022/06/27 00:11:03;;;;;;;201.93;192.32;;;;;;;28.90;42.42;100833.78;692158;28;67402;-65
2022/06/27 00:11:27;;;;;;;208.00;198.30;;;;;;;28.91;42.50;100841.00;694413;28;15264;-65
2022/06/27 00:11:48;;;;;;;174.60;166.45;;;;;;;28.89;42.50;100843.28;694125;28;22475;-65
2022/06/27 00:12:10;;;;;;;58.67;55.97;;;;;;;28.88;42.89;100847.97;694000;28;16249;-65
2022/06/27 00:12:32;;;;;;;100.03;95.38;;;;;;;28.87;42.92;100845.50;693084;28;45211;-65
2022/06/27 00:12:54;;;;;;;219.27;209.13;;;;;;;28.85;42.63;100844.97;693442;28;44532;-66
2022/06/27 00:13:15;;;;;;;332.00;316.65;;;;;;;28.86;42.55;100841.09;693108;28;47390;-65
2022/06/27 00:13:37;;;;;;;405.15;385.15;;;;;;;28.85;42.55;100842.19;693480;28;22464;-67
2022/06/27 00:13:59;;;;;;;172.98;164.75;;;;;;;28.84;42.65;100846.94;692222;28;45336;-65
2022/06/27 00:14:20;;;;;;;194.90;185.73;;;;;;;28.85;42.63;100848.56;694037;28;22483;-65
2022/06/27 00:14:41;;;;;;;376.55;358.35;;;;;;;28.86;42.17;100847.47;693373;28;22535;-65
2022/06/27 00:15:03;;;;;;;461.23;438.80;;;;;;;28.86;42.51;100836.34;690408;28;44960;-66
2022/06/27 00:15:26;;;;;;;510.30;485.20;;;;;;;28.84;42.81;100837.75;690516;28;46429;-66
2022/06/27 00:15:47;;;;;;;330.63;315.42;;;;;;;28.85;42.88;100845.78;690099;28;69686;-66
2022/06/27 00:16:08;;;;;;;440.33;419.17;;;;;;;28.85;42.62;100845.78;691482;28;23497;-66
2022/06/27 00:16:29;;;;;;;509.83;484.73;;;;;;;28.85;42.75;100845.78;691229;28;22205;-66
2022/06/27 00:16:51;;;;;;;376.23;358.55;;;;;;;28.84;42.62;100841.38;690967;28;46298;-66
2022/06/27 00:17:12;;;;;;;306.27;292.10;;;;;;;28.84;42.30;100846.94;690545;28;45054;-65
2022/06/27 00:17:34;;;;;;;309.90;295.52;;;;;;;28.84;42.44;100846.09;691408;28;21550;-66
2022/06/27 00:17:57;;;;;;;322.98;307.98;;;;;;;28.84;42.45;100844.16;691774;28;23496;-65
2022/06/27 00:18:19;;;;;;;424.35;404.45;;;;;;;28.81;42.79;100850.31;689827;28;69439;-67
2022/06/27 00:18:40;;;;;;;490.52;465.33;;;;;;;28.82;42.41;100843.59;690299;28;45287;-66
2022/06/27 00:19:02;;;;;;;497.95;471.90;;;;;;;28.82;42.73;100846.38;691246;28;22462;-66
2022/06/27 00:19:23;;;;;;;168.75;160.68;;;;;;;28.83;42.42;100847.25;690662;28;44121;-67
2022/06/27 00:19:45;;;;;;;0.70;0.70;;;;;;;28.81;42.54;100850.31;691131;28;22336;-66
2022/06/27 00:20:07;;;;;;;0.70;0.70;;;;;;;28.77;42.55;100843.69;693187;28;46325;-67
2022/06/27 00:20:28;;;;;;;0.60;0.60;;;;;;;28.76;42.94;100850.34;693278;28;46429;-66
2022/06/27 00:20:49;;;;;;;0.65;0.65;;;;;;;28.76;42.86;100853.13;694050;28;23307;-66
2022/06/27 00:21:12;;;;;;;0.52;0.52;;;;;;;28.76;42.96;100853.97;692694;28;22316;-66
2022/06/27 00:21:33;;;;;;;0.47;0.47;;;;;;;28.76;43.12;100847.56;693286;28;46427;-66
2022/06/27 00:21:54;;;;;;;0.60;0.60;;;;;;;28.75;43.23;100848.72;691079;28;21835;-64
2022/06/27 00:22:16;;;;;;;0.75;0.75;;;;;;;28.75;42.75;100848.72;689989;28;44469;-66
2022/06/27 00:22:38;;;;;;;0.80;0.80;;;;;;;28.74;42.73;100850.66;691008;28;21540;-65
2022/06/27 00:22:59;;;;;;;0.70;0.70;;;;;;;28.74;43.18;100847.06;691344;28;46236;-65
2022/06/27 00:23:20;;;;;;;0.63;0.63;;;;;;;28.76;42.92;100855.91;692590;28;45247;-65
2022/06/27 00:23:41;;;;;;;2.25;2.15;;;;;;;28.76;43.10;100853.13;693219;28;41916;-65
2022/06/27 00:24:04;;;;;;;8.00;7.70;;;;;;;28.76;43.08;100853.97;693636;28;21579;-65
2022/06/27 00:24:27;;;;;;;15.75;15.15;;;;;;;28.76;43.07;100859.53;693279;28;45232;-66
2022/06/27 00:24:48;;;;;;;48.55;46.35;;;;;;;28.81;42.74;100857.81;691367;28;67507;-66
2022/06/27 00:25:10;;;;;;;115.40;109.97;;;;;;;28.79;43.10;100852.53;694103;28;23408;-66
2022/06/27 00:25:32;;;;;;;150.57;143.48;;;;;;;28.77;42.69;100855.63;693261;28;40182;-66
2022/06/27 00:25:53;;;;;;;98.78;94.10;;;;;;;28.76;42.72;100859.53;693252;28;45051;-66
2022/06/27 00:26:14;;;;;;;12.77;12.23;;;;;;;28.74;42.73;100856.22;693898;28;22399;-66
2022/06/27 00:26:36;;;;;;;0.60;0.60;;;;;;;28.76;42.85;100856.75;693860;28;21464;-66
2022/06/27 00:26:58;;;;;;;0.65;0.65;;;;;;;28.77;42.55;100860.34;692777;28;44397;-66
2022/06/27 00:27:19;;;;;;;0.85;0.85;;;;;;;28.79;42.98;100857.28;694291;28;21588;-66
2022/06/27 00:27:40;;;;;;;28.85;27.52;;;;;;;28.77;42.59;100861.19;692988;28;44376;-66
2022/06/27 00:28:02;;;;;;;166.95;159.13;;;;;;;28.77;43.27;100861.19;693267;28;22240;-66
2022/06/27 00:28:24;;;;;;;179.43;170.98;;;;;;;28.78;42.69;100859.25;690196;28;46315;-66
2022/06/27 00:28:46;;;;;;;120.38;114.72;;;;;;;28.75;42.86;100859.84;690249;28;69403;-65
2022/06/27 00:29:07;;;;;;;92.40;88.10;;;;;;;28.73;43.29;100865.69;688900;28;22233;-66
2022/06/27 00:29:29;;;;;;;172.25;164.18;;;;;;;28.72;42.92;100863.22;689034;28;21550;-65
2022/06/27 00:29:51;;;;;;;240.85;229.63;;;;;;;28.72;43.30;100864.03;688991;28;20900;-66
2022/06/27 00:30:12;;;;;;;175.00;166.80;;;;;;;28.72;43.34;100863.22;691204;28;46305;-66
2022/06/27 00:30:35;;;;;;;135.15;128.77;;;;;;;28.72;42.90;100869.59;688666;28;70201;-66
2022/06/27 00:30:56;;;;;;;136.68;130.15;;;;;;;28.70;43.04;100865.44;688725;28;23453;-65
2022/06/27 00:31:18;;;;;;;171.02;162.88;;;;;;;28.65;43.19;100855.22;687079;28;21596;-65
2022/06/27 00:31:40;;;;;;;128.00;121.93;;;;;;;28.69;43.19;100863.81;686779;28;68252;-66
2022/06/27 00:32:03;;;;;;;30.40;28.95;;;;;;;28.68;43.00;100865.72;688082;28;44371;-65
2022/06/27 00:32:26;;;;;;;117.40;111.82;;;;;;;28.69;42.99;100867.41;688439;28;45276;-66
2022/06/27 00:32:48;;;;;;;154.93;147.60;;;;;;;28.70;42.84;100865.44;690581;28;69568;-66
2022/06/27 00:33:12;;;;;;;203.25;193.82;;;;;;;28.71;43.07;100865.13;690585;28;113567;-66
2022/06/27 00:33:34;;;;;;;102.97;98.22;;;;;;;28.72;43.14;100864.03;696506;28;21316;-66
2022/06/27 00:33:55;;;;;;;16.83;16.08;;;;;;;28.73;42.78;100864.84;696484;28;23543;-66
2022/06/27 00:34:17;;;;;;;0.40;0.40;;;;;;;28.74;43.01;100859.00;693820;28;22387;-66
2022/06/27 00:34:39;;;;;;;0.73;0.73;;;;;;;28.75;42.87;100857.88;690330;28;69343;-66
2022/06/27 00:35:00;;;;;;;0.75;0.75;;;;;;;28.69;42.69;100847.13;690038;28;21568;-64
2022/06/27 00:35:21;;;;;;;0.90;0.90;;;;;;;28.74;42.98;100853.44;691500;28;22409;-66
2022/06/27 00:35:43;;;;;;;0.50;0.50;;;;;;;28.75;42.70;100862.63;691494;28;45241;-65
2022/06/27 00:36:05;;;;;;;0.50;0.50;;;;;;;28.72;43.18;100850.13;691762;28;69535;-66
2022/06/27 00:36:27;;;;;;;0.50;0.50;;;;;;;28.74;43.19;100853.44;694987;28;26027;-65
2022/06/27 00:36:48;;;;;;;0.40;0.40;;;;;;;28.73;42.69;100853.72;697518;28;1181;-65
2022/06/27 00:37:11;;;;;;;0.88;0.88;;;;;;;28.71;43.24;100848.47;693169;28;1000;-65
2022/06/27 00:37:34;;;;;;;0.73;0.73;;;;;;;28.73;42.87;100851.78;694580;28;1495;-66
2022/06/27 00:37:59;;;;;;;0.50;0.50;;;;;;;28.73;43.22;100851.78;691832;28;61846;-66
2022/06/27 00:38:20;;;;;;;0.20;0.20;;;;;;;28.74;42.57;100859.00;693134;28;1310;-66
2022/06/27 00:38:41;;;;;;;0.40;0.40;;;;;;;28.75;43.14;100859.84;692198;28;23353;-65
2022/06/27 00:39:04;;;;;;;0.40;0.40;;;;;;;28.71;42.94;100859.59;693167;28;23489;-65
2022/06/27 00:39:25;;;;;;;0.63;0.63;;;;;;;28.74;42.83;100849.84;693768;28;45303;-66
2022/06/27 00:39:47;;;;;;;16.83;16.15;;;;;;;28.68;43.14;100860.16;691671;28;45250;-66
2022/06/27 00:40:09;;;;;;;39.83;38.05;;;;;;;28.67;43.27;100858.53;688613;28;67496;-66
2022/06/27 00:40:31;;;;;;;60.70;57.92;;;;;;;28.68;43.06;100857.41;693354;28;21541;-65
2022/06/27 00:40:52;;;;;;;38.90;37.17;;;;;;;28.67;42.74;100855.75;692130;28;45219;-65
2022/06/27 00:41:13;;;;;;;17.00;16.40;;;;;;;28.69;42.99;100863.81;692536;28;45218;-67
2022/06/27 00:41:36;;;;;;;12.93;12.50;;;;;;;28.68;42.99;100856.56;693350;28;22463;-66
2022/06/27 00:41:58;;;;;;;61.55;58.75;;;;;;;28.68;43.30;100862.94;692422;28;69466;-65
2022/06/27 00:42:19;;;;;;;137.95;131.43;;;;;;;28.63;43.08;100849.13;692914;28;46402;-65
2022/06/27 00:42:44;;;;;;;165.80;157.98;;;;;;;28.69;42.80;100858.25;690610;28;22398;-66
2022/06/27 00:43:05;;;;;;;133.00;126.70;;;;;;;28.70;43.21;100859.88;689902;28;91800;-65
2022/06/27 00:43:30;;;;;;;174.80;166.48;;;;;;;28.70;43.08;100860.72;692568;28;22186;-65
2022/06/27 00:43:51;;;;;;;72.63;69.28;;;;;;;28.69;43.18;100855.47;687810;28;136427;-65
2022/06/27 00:44:32;;;;;;;100.90;96.20;;;;;;;28.70;42.66;100860.72;691466;28;46334;-65
2022/06/27 00:44:53;;;;;;;201.07;191.60;;;;;;;28.69;43.05;100855.47;687520;28;137542;-65
2022/06/27 00:45:15;;;;;;;201.60;192.00;;;;;;;28.68;43.09;100862.94;694038;28;21523;-65
2022/06/27 00:45:36;;;;;;;220.10;209.70;;;;;;;28.67;43.00;100860.47;692593;28;43930;-64
2022/06/27 00:45:58;;;;;;;191.95;182.82;;;;;;;28.66;43.00;100862.44;693458;28;21204;-65
2022/06/27 00:46:19;;;;;;;127.00;121.03;;;;;;;28.65;42.83;100860.75;690940;28;22538;-65
2022/06/27 00:46:40;;;;;;;103.65;98.85;;;;;;;28.67;43.14;100860.47;690612;28;46438;-65
2022/06/27 00:47:03;;;;;;;153.80;146.50;;;;;;;28.65;43.15;100857.16;691168;28;25101;-65
2022/06/27 00:47:24;;;;;;;190.90;181.75;;;;;;;28.63;42.76;100865.81;689650;28;67500;-65
2022/06/27 00:47:46;;;;;;;147.63;140.63;;;;;;;28.63;43.23;100862.19;690190;28;22425;-66
2022/06/27 00:48:08;;;;;;;158.13;150.57;;;;;;;28.61;43.37;100859.72;690424;28;44397;-65
2022/06/27 00:48:30;;;;;;;134.98;128.55;;;;;;;28.62;43.14;100857.75;692870;28;23426;-65
2022/06/27 00:48:51;;;;;;;111.05;105.88;;;;;;;28.64;42.92;100850.78;694239;28;2807;-65
2022/06/27 00:49:12;;;;;;;54.15;51.63;;;;;;;28.61;43.44;100854.16;695954;28;23431;-66
2022/06/27 00:49:34;;;;;;;0.30;0.30;;;;;;;28.58;43.25;100858.34;695633;28;45235;-65
2022/06/27 00:49:55;;;;;;;0.40;0.40;;;;;;;28.56;43.79;100854.19;695100;28;45325;-65
2022/06/27 00:50:18;;;;;;;0.50;0.50;;;;;;;28.54;43.60;100854.50;695359;28;45247;-66
2022/06/27 00:50:39;;;;;;;0.40;0.40;;;;;;;28.52;43.87;100861.47;694943;28;69479;-65
2022/06/27 00:51:00;;;;;;;0.40;0.40;;;;;;;28.47;43.68;100865.13;695808;28;21529;-65
2022/06/27 00:51:24;;;;;;;0.43;0.43;;;;;;;28.44;43.74;100857.38;693780;28;22295;-65
2022/06/27 00:51:46;;;;;;;0.57;0.57;;;;;;;28.47;43.76;100855.97;691140;28;92167;-65
2022/06/27 00:52:10;;;;;;;0.63;0.63;;;;;;;28.50;43.98;100858.16;692285;28;46338;-65
2022/06/27 00:52:32;;;;;;;0.45;0.45;;;;;;;28.50;43.96;100852.59;691560;28;92341;-67
2022/06/27 00:52:53;;;;;;;0.60;0.60;;;;;;;28.46;43.93;100845.97;693214;28;44397;-65
2022/06/27 00:53:16;;;;;;;0.60;0.60;;;;;;;28.51;43.93;100855.09;690730;28;46272;-65
2022/06/27 00:53:38;;;;;;;0.60;0.60;;;;;;;28.48;43.98;100855.69;690572;28;69498;-65
2022/06/27 00:54:01;;;;;;;0.50;0.50;;;;;;;28.49;43.76;100853.72;692220;28;69356;-66
2022/06/27 00:54:23;;;;;;;0.47;0.47;;;;;;;28.50;43.48;100855.38;691993;28;69446;-66
2022/06/27 00:54:47;;;;;;;0.60;0.60;;;;;;;28.48;43.49;100850.13;693192;28;23580;-66
2022/06/27 00:55:11;;;;;;;69.15;65.90;;;;;;;28.39;43.45;100841.59;688773;28;139622;-65
2022/06/27 00:55:32;;;;;;;126.30;120.30;;;;;;;28.48;43.95;100861.22;690430;28;46162;-67
2022/06/27 00:55:54;;;;;;;200.27;190.73;;;;;;;28.47;43.46;100859.56;690552;28;23418;-67
2022/06/27 00:56:15;;;;;;;194.38;185.13;;;;;;;28.45;43.81;100858.19;690045;28;46413;-66
2022/06/27 00:56:37;;;;;;;173.10;164.82;;;;;;;28.47;43.98;100855.97;691156;28;1173;-67
2022/06/27 00:56:59;;;;;;;128.77;122.60;;;;;;;28.43;43.58;100850.16;686078;28;46384;-66
2022/06/27 00:57:20;;;;;;;175.48;166.98;;;;;;;28.48;43.91;100854.81;687086;28;45537;-67
2022/06/27 00:57:41;;;;;;;146.15;139.13;;;;;;;28.45;43.73;100853.50;689162;28;22278;-65
2022/06/27 00:58:03;;;;;;;69.03;65.78;;;;;;;28.44;43.72;100857.38;691869;28;22458;-66
2022/06/27 00:58:25;;;;;;;111.95;106.60;;;;;;;28.45;43.70;100856.25;689345;28;67337;-66
2022/06/27 00:58:46;;;;;;;101.63;96.80;;;;;;;28.45;43.37;100852.63;691128;28;21424;-66
2022/06/27 00:59:09;;;;;;;184.18;175.32;;;;;;;28.43;43.59;100860.44;693937;28;21543;-66
2022/06/27 00:59:30;;;;;;;172.00;163.73;;;;;;;28.39;44.12;100860.22;692112;28;69171;-66
2022/06/27 00:59:51;;;;;;;154.60;147.18;;;;;;;28.39;43.61;100860.22;693078;28;23641;-66
2022/06/27 01:00:14;;;;;;;123.38;117.50;;;;;;;28.39;43.81;100861.03;690742;28;22398;-66
2022/06/27 01:00:36;;;;;;;79.55;75.80;;;;;;;28.41;44.04;100860.75;691202;28;70141;-67
2022/06/27 01:00:57;;;;;;;97.55;92.95;;;;;;;28.39;43.60;100861.03;693285;28;23557;-67
2022/06/27 01:01:18;;;;;;;57.72;55.03;;;;;;;28.39;43.68;100863.00;690915;28;23366;-66
2022/06/27 01:01:40;;;;;;;41.10;39.20;;;;;;;28.41;44.07;100860.75;687537;28;46165;-66
2022/06/27 01:02:03;;;;;;;19.58;18.73;;;;;;;28.41;43.94;100858.78;687730;28;46238;-66
2022/06/27 01:02:24;;;;;;;0.30;0.30;;;;;;;28.40;43.59;100857.16;691640;28;44568;-67
2022/06/27 01:02:45;;;;;;;0.20;0.20;;;;;;;28.38;44.02;100858.56;690147;28;45312;-67
2022/06/27 01:03:08;;;;;;;0.30;0.30;;;;;;;28.43;43.72;100854.88;690606;28;45275;-66
2022/06/27 01:03:29;;;;;;;0.30;0.30;;;;;;;28.43;44.14;100860.44;693108;28;46419;-66
2022/06/27 01:03:50;;;;;;;0.30;0.30;;;;;;;28.41;43.54;100855.19;694026;28;22401;-66
2022/06/27 01:04:12;;;;;;;0.40;0.40;;;;;;;28.39;44.12;100852.69;693855;28;22316;-66
2022/06/27 01:04:34;;;;;;;0.40;0.40;;;;;;;28.39;44.21;100851.88;694602;28;45270;-66
2022/06/27 01:04:57;;;;;;;0.30;0.30;;;;;;;28.40;44.19;100850.75;689186;28;34633;-66
2022/06/27 01:05:18;;;;;;;0.40;0.40;;;;;;;28.40;43.70;100851.59;690043;28;43829;-66
2022/06/27 01:05:51;;;;;;;0.40;0.40;;;;;;;28.33;44.24;100845.53;690893;28;22436;-66
2022/06/27 01:06:12;;;;;;;0.22;0.22;;;;;;;28.36;43.87;100853.28;686939;28;135469;-66
2022/06/27 01:06:34;;;;;;;0.40;0.40;;;;;;;28.36;43.72;100847.72;690773;28;22429;-66
2022/06/27 01:06:56;;;;;;;0.50;0.50;;;;;;;28.36;44.09;100844.16;690913;28;18497;-66
2022/06/27 01:07:17;;;;;;;0.40;0.40;;;;;;;28.37;43.97;100852.19;689981;28;46359;-67
2022/06/27 01:07:40;;;;;;;0.60;0.60;;;;;;;28.39;44.35;100849.09;691909;28;22503;-66
2022/06/27 01:08:02;;;;;;;0.50;0.50;;;;;;;28.37;44.12;100854.09;690630;28;69425;-66
2022/06/27 01:08:25;;;;;;;0.38;0.38;;;;;;;28.35;44.15;100848.84;691690;28;23459;-66
2022/06/27 01:08:46;;;;;;;0.25;0.25;;;;;;;28.37;44.05;100851.34;689866;28;67632;-66
2022/06/27 01:09:07;;;;;;;0.25;0.25;;;;;;;28.36;43.98;100849.69;692407;28;22437;-67
2022/06/27 01:09:30;;;;;;;0.32;0.32;;;;;;;28.38;44.00;100850.22;691680;28;45078;-67
2022/06/27 01:09:53;;;;;;;0.40;0.40;;;;;;;28.38;44.29;100853.00;694160;28;45156;-66
2022/06/27 01:10:15;;;;;;;0.32;0.32;;;;;;;28.38;44.14;100851.03;694245;28;67538;-67
2022/06/27 01:10:36;;;;;;;0.30;0.30;;;;;;;28.35;44.14;100845.25;692505;28;45924;-68
2022/06/27 01:10:58;;;;;;;0.30;0.30;;;;;;;28.38;43.85;100848.25;693826;28;23477;-67
2022/06/27 01:11:20;;;;;;;0.15;0.15;;;;;;;28.38;43.92;100850.22;692838;28;44441;-67
2022/06/27 01:11:42;;;;;;;0.20;0.20;;;;;;;28.37;44.04;100846.63;692294;28;46340;-66
2022/06/27 01:12:04;;;;;;;0.30;0.30;;;;;;;28.37;43.93;100843.00;690458;28;23837;-66
2022/06/27 01:12:26;;;;;;;0.50;0.50;;;;;;;28.36;43.83;100849.69;687804;28;46286;-67
2022/06/27 01:12:48;;;;;;;0.40;0.40;;;;;;;28.35;44.28;100848.84;686558;28;68440;-66
2022/06/27 01:13:09;;;;;;;0.32;0.32;;;;;;;28.35;44.14;100851.63;686926;28;45270;-66
2022/06/27 01:13:31;;;;;;;0.40;0.40;;;;;;;28.34;44.42;100855.53;685598;28;23478;-67
2022/06/27 01:13:53;;;;;;;0.40;0.40;;;;;;;28.35;43.88;100854.41;685537;28;46136;-66
2022/06/27 01:14:14;;;;;;;0.43;0.43;;;;;;;28.34;44.16;100854.69;686815;28;68410;-65
2022/06/27 01:14:36;;;;;;;24.42;23.35;;;;;;;28.33;43.92;100851.09;687047;28;46312;-66
2022/06/27 01:14:59;;;;;;;48.08;45.92;;;;;;;28.31;44.27;100853.34;688315;28;23221;-66
2022/06/27 01:15:20;;;;;;;45.45;43.38;;;;;;;28.31;44.39;100852.53;690870;28;69402;-66
2022/06/27 01:15:42;;;;;;;32.85;31.38;;;;;;;28.31;44.26;100846.97;692913;28;23470;-66
2022/06/27 01:16:04;;;;;;;50.65;48.38;;;;;;;28.28;44.04;100853.13;691051;28;47294;-66
2022/06/27 01:16:26;;;;;;;76.03;72.53;;;;;;;28.26;44.21;100847.88;694992;28;46363;-65
2022/06/27 01:16:47;;;;;;;76.68;73.13;;;;;;;28.27;44.40;100854.22;695135;28;45251;-64
2022/06/27 01:17:10;;;;;;;62.70;59.80;;;;;;;28.25;44.18;100848.97;694770;28;44398;-65
2022/06/27 01:17:31;;;;;;;64.25;61.22;;;;;;;28.24;44.26;100850.09;694417;28;69386;-65
2022/06/27 01:17:53;;;;;;;81.47;77.63;;;;;;;28.23;44.10;100846.50;696088;28;21529;-66
2022/06/27 01:18:15;;;;;;;106.53;101.47;;;;;;;28.28;44.37;100858.69;694781;28;45270;-66
2022/06/27 01:18:37;;;;;;;75.60;72.15;;;;;;;28.28;44.00;100853.13;691896;28;46604;-65
2022/06/27 01:18:58;;;;;;;52.75;50.35;;;;;;;28.28;44.49;100865.06;691043;28;44280;-65
2022/06/27 01:19:21;;;;;;;80.82;77.05;;;;;;;28.27;44.38;100857.00;693567;28;44310;-64
2022/06/27 01:19:43;;;;;;;98.55;93.95;;;;;;;28.24;44.09;100850.09;693712;28;21538;-64
2022/06/27 01:20:05;;;;;;;110.53;105.37;;;;;;;28.24;44.23;100858.41;692836;28;69397;-65
2022/06/27 01:20:27;;;;;;;109.30;104.10;;;;;;;28.23;44.29;100854.00;691914;28;69960;-65
2022/06/27 01:20:48;;;;;;;116.07;110.55;;;;;;;28.23;44.29;100854.81;690588;28;44178;-64
2022/06/27 01:21:19;;;;;;;94.47;90.00;;;;;;;28.24;44.13;100850.09;690452;28;23477;-65
2022/06/27 01:21:45;;;;;;;55.78;53.15;;;;;;;28.25;44.31;100860.09;685955;28;160689;-66
2022/06/27 01:22:08;;;;;;;0.50;0.50;;;;;;;28.26;44.55;100861.75;685925;28;115321;-66
2022/06/27 01:22:31;;;;;;;0.30;0.30;;;;;;;28.25;44.58;100854.53;692657;28;15681;-65
2022/06/27 01:22:53;;;;;;;0.30;0.30;;;;;;;28.27;44.65;100854.22;690602;28;46355;-65
2022/06/27 01:23:16;;;;;;;0.20;0.20;;;;;;;28.26;44.25;100856.19;687162;28;92289;-65
2022/06/27 01:23:37;;;;;;;0.20;0.20;;;;;;;28.25;44.15;100854.53;686945;28;21542;-66
2022/06/27 01:23:59;;;;;;;0.30;0.30;;;;;;;28.27;44.12;100860.59;688164;28;23492;-66
2022/06/27 01:24:23;;;;;;;0.30;0.30;;;;;;;28.24;44.35;100861.19;687549;28;70302;-65
2022/06/27 01:24:45;;;;;;;0.30;0.30;;;;;;;28.21;44.71;100857.06;688903;28;69348;-65
2022/06/27 01:25:08;;;;;;;0.30;0.30;;;;;;;28.16;44.50;100851.56;693218;28;46229;-65
2022/06/27 01:25:29;;;;;;;0.30;0.30;;;;;;;28.20;44.39;100860.13;694300;28;67645;-65
2022/06/27 01:25:54;;;;;;;0.30;0.30;;;;;;;28.19;44.56;100856.50;693908;28;90790;-65
2022/06/27 01:26:16;;;;;;;0.22;0.22;;;;;;;28.19;44.71;100859.28;695203;28;45264;-65
2022/06/27 01:26:38;;;;;;;0.20;0.20;;;;;;;28.20;44.43;100860.97;688742;28;69765;-65
2022/06/27 01:26:59;;;;;;;0.20;0.20;;;;;;;28.20;44.25;100860.97;691921;28;23494;-66
2022/06/27 01:27:21;;;;;;;0.30;0.30;;;;;;;28.21;44.70;100857.06;689195;28;46645;-65
2022/06/27 01:27:44;;;;;;;0.30;0.30;;;;;;;28.23;44.74;100856.78;690873;28;22402;-65
2022/06/27 01:28:08;;;;;;;0.20;0.20;;;;;;;28.23;44.61;100857.59;688496;28;92418;-66
2022/06/27 01:28:30;;;;;;;0.40;0.40;;;;;;;28.23;44.26;100862.34;689516;28;115333;-67
2022/06/27 01:28:52;;;;;;;0.38;0.38;;;;;;;28.22;44.50;100855.13;690220;28;46388;-66
2022/06/27 01:29:16;;;;;;;0.30;0.30;;;;;;;28.22;44.65;100864.25;686417;28;68431;-66
2022/06/27 01:29:38;;;;;;;23.48;22.42;;;;;;;28.21;44.20;100859.84;685219;28;45281;-66
2022/06/27 01:30:01;;;;;;;113.80;108.45;;;;;;;28.20;44.65;100857.38;685759;28;68335;-66
2022/06/27 01:30:24;;;;;;;105.13;100.20;;;;;;;28.20;44.41;100860.13;685375;28;92325;-66
2022/06/27 01:30:47;;;;;;;142.13;135.32;;;;;;;28.19;44.80;100856.50;686339;28;69295;-66
2022/06/27 01:31:12;;;;;;;137.23;130.68;;;;;;;28.20;44.58;100858.19;686264;28;45270;-66
2022/06/27 01:31:34;;;;;;;58.08;55.38;;;;;;;28.21;44.79;100859.00;680891;28;92270;-66
2022/06/27 01:31:56;;;;;;;68.20;65.07;;;;;;;28.20;44.32;100865.69;683886;28;69439;-66
2022/06/27 01:32:17;;;;;;;117.65;112.07;;;;;;;28.20;44.28;100855.41;688183;28;22408;-66
2022/06/27 01:32:39;;;;;;;85.93;81.90;;;;;;;28.20;44.66;100862.91;690884;28;22421;-66
2022/06/27 01:33:01;;;;;;;28.17;26.92;;;;;;;28.15;44.85;100849.06;691022;28;92186;-66
2022/06/27 01:33:23;;;;;;;9.48;9.13;;;;;;;28.17;44.50;100856.00;692440;28;21594;-66
2022/06/27 01:33:44;;;;;;;3.45;3.35;;;;;;;28.16;44.60;100859.88;693951;28;22429;-66
2022/06/27 01:34:06;;;;;;;4.45;4.32;;;;;;;28.15;44.47;100861.03;690143;28;23275;-66
2022/06/27 01:34:28;;;;;;;12.50;12.07;;;;;;;28.14;44.91;100859.34;687291;28;46159;-65
2022/06/27 01:34:50;;;;;;;37.92;36.28;;;;;;;28.13;44.88;100860.47;685351;28;69262;-65
2022/06/27 01:35:15;;;;;;;105.05;100.05;;;;;;;28.11;44.59;100865.50;683796;28;61910;-65
2022/06/27 01:35:39;;;;;;;177.65;169.10;;;;;;;28.11;45.11;100859.13;684672;28;59653;-66
2022/06/27 01:36:47;;;;;;;53.72;51.22;;;;;;;28.10;45.14;100863.81;683758;28;137171;-66
2022/06/27 01:37:11;;;;;;;32.72;31.23;;;;;;;28.09;44.85;100853.00;684532;28;92502;-66
2022/06/27 01:37:37;;;;;;;32.08;30.63;;;;;;;28.07;45.11;100853.31;681865;28;139388;-65
2022/06/27 01:37:59;;;;;;;0.40;0.40;;;;;;;28.09;44.95;100864.13;685094;28;46433;-66
2022/06/27 01:38:20;;;;;;;0.40;0.40;;;;;;;28.05;45.12;100861.91;683203;28;21539;-66
2022/06/27 01:38:41;;;;;;;14.50;13.93;;;;;;;28.03;44.98;100852.25;688452;28;22338;-65
2022/06/27 01:39:04;;;;;;;30.33;29.00;;;;;;;28.03;45.17;100864.16;684050;28;69446;-65
2022/06/27 01:39:27;;;;;;;30.63;29.30;;;;;;;28.01;45.06;100863.66;685998;28;45301;-65
2022/06/27 01:39:54;;;;;;;15.68;15.07;;;;;;;28.02;44.99;100864.47;682388;28;138152;-65
2022/06/27 01:40:16;;;;;;;24.67;23.65;;;;;;;28.00;45.51;100856.41;685446;28;69389;-66
2022/06/27 01:40:40;;;;;;;20.10;19.25;;;;;;;27.96;45.00;100857.28;685105;28;22421;-66
2022/06/27 01:41:01;;;;;;;34.78;33.22;;;;;;;27.96;45.47;100863.69;685136;28;93141;-66
2022/06/27 01:41:22;;;;;;;40.55;38.70;;;;;;;27.96;45.30;100857.28;688181;28;22292;-66
2022/06/27 01:41:45;;;;;;;73.20;69.75;;;;;;;27.96;45.75;100860.91;688982;28;22640;-66
2022/06/27 01:42:08;;;;;;;81.07;77.28;;;;;;;27.98;45.53;100868.97;689680;28;90424;-66
2022/06/27 01:42:29;;;;;;;72.57;69.20;;;;;;;27.96;45.24;100858.16;693210;28;46191;-66
2022/06/27 01:42:51;;;;;;;50.25;47.95;;;;;;;27.95;45.54;100858.44;693561;28;22399;-66